11:29
Airports
Links
Donate
Help keep this website running!
PayPal
Bitcoin
METAR
KRIW 111053Z AUTO 00000KT 10SM CLR M09/M11 A3040 RMK AO2 SLP338 T10891111
Current Weather Conditions at KRIW
VFR 10:53:00 11-12-17
Automated station, no observer
Altimeter:30.40 hg
Temp:-8.9°c 18°f
Dew point:-11.1°c 12°f
Wind:0 knots, 0 mph, 0 m/s,
Variable direction
Visibility:10.0 statute miles
(CLR) Clear
Past METAR reports
VFR 09:53:00 11-12-17
Automated station, no observer
Altimeter:30.40 hg
Temp:-7.2°c 19°f
Dew point:-10.6°c 14°f
Wind:0 knots, 0 mph, 0 m/s,
Variable direction
Visibility:10.0 statute miles
(CLR) Clear
KRIW 110953Z AUTO 00000KT 10SM CLR M07/M11 A3040 RMK AO2 SLP329 T10721106
VFR 08:53:00 11-12-17
Automated station, no observer
Altimeter:30.41 hg
Temp:-8.3°c 18°f
Dew point:-11.1°c 12°f
Wind:3 knots, 3.5 mph, 2 m/s, from 10°
Visibility:10.0 statute miles
(CLR) Clear
KRIW 110853Z AUTO 01003KT 10SM CLR M08/M11 A3041 RMK AO2 SLP340 T10831111 58004
VFR 07:53:00 11-12-17
Automated station, no observer
Altimeter:30.42 hg
Temp:-7.2°c 19°f
Dew point:-11.1°c 12°f
Wind:6 knots, 6.9 mph, 3 m/s, from 250°
Visibility:10.0 statute miles
(CLR) Clear
KRIW 110753Z AUTO 25006KT 10SM CLR M07/M11 A3042 RMK AO2 SLP344 T10721111
VFR 06:53:00 11-12-17
Automated station, no observer
Altimeter:30.43 hg
Temp:-7.8°c 19°f
Dew point:-11.7°c 12°f
Wind:4 knots, 4.6 mph, 2 m/s, from 220°
Visibility:10.0 statute miles
(CLR) Clear
KRIW 110653Z AUTO 22004KT 10SM CLR M08/M12 A3043 RMK AO2 SLP357 T10781117 400281117
VFR 05:53:00 11-12-17
Automated station, no observer
Altimeter:30.43 hg
Temp:-6.1°c 21°f
Dew point:-10.0°c 14°f
Wind:4 knots, 4.6 mph, 2 m/s, from 270°
Visibility:10.0 statute miles
(CLR) Clear
KRIW 110553Z AUTO 27004KT 10SM CLR M06/M10 A3043 RMK AO2 SLP350 T10611100 11017 21078 53008
TAF
KRIW 111126Z 1112/1212 VRB05KT P6SM SCT250
Forecast at KRIW
12:00 11-12-17 to 12:00 12-12-17
Wind:5 Knots from 360°
Visibility:6.21 statute miles
25000SCT Scattered